Time;durP1;ratioP1;P1;durP2;ratioP2;P2;SDS_P1;SDS_P2;PMS_P1;PMS_P2;Temp;Humidity;BMP_temperature;BMP_pressure;BME280_temperature;BME280_humidity;BME280_pressure;Samples;Min_cycle;Max_cycle;Signal;HPM_P1;HPM_P2
2024/01/09 00:01:40;;;;;;;1.30;1.30;;;;;;;-6.73;73.95;99478.44;4965313;28;20046;-90
2024/01/09 00:04:06;;;;;;;1.30;1.30;;;;;;;-6.93;73.96;99477.06;4936001;29;20035;-90
2024/01/09 00:06:33;;;;;;;1.40;1.40;;;;;;;-7.23;75.02;99478.19;4921784;29;20042;-90
2024/01/09 00:08:59;;;;;;;1.30;1.30;;;;;;;-7.39;75.41;99483.31;4949631;29;20407;-91
2024/01/09 00:11:25;;;;;;;1.30;1.30;;;;;;;-6.89;74.03;99481.84;4923929;29;20040;-91
2024/01/09 00:13:52;;;;;;;1.30;1.30;;;;;;;-7.24;74.73;99476.31;4935905;29;20040;-90
2024/01/09 00:16:18;;;;;;;1.40;1.40;;;;;;;-6.88;73.91;99481.06;4926025;29;20036;-91
2024/01/09 00:18:43;;;;;;;1.20;1.20;;;;;;;-6.79;73.44;99485.59;4920752;29;20477;-90
2024/01/09 00:21:09;;;;;;;1.20;1.20;;;;;;;-6.93;72.95;99488.34;4922357;29;20079;-90
2024/01/09 00:23:36;;;;;;;1.30;1.30;;;;;;;-6.97;73.10;99484.50;4920773;29;20035;-92
2024/01/09 00:26:01;;;;;;;1.30;1.30;;;;;;;-6.76;72.68;99479.78;4937037;29;20036;-88
2024/01/09 00:28:27;;;;;;;1.20;1.20;;;;;;;-6.85;72.80;99486.56;4920272;29;20098;-90
2024/01/09 00:30:54;;;;;;;1.30;1.30;;;;;;;-7.03;73.19;99490.72;4951107;28;20054;-90
2024/01/09 00:33:20;;;;;;;1.30;1.30;;;;;;;-7.11;73.95;99487.28;4952884;29;20032;-91
2024/01/09 00:35:46;;;;;;;1.30;1.30;;;;;;;-7.36;74.31;99487.94;4935714;29;20032;-90
2024/01/09 00:38:12;;;;;;;1.30;1.30;;;;;;;-7.12;74.17;99485.44;4916252;29;20042;-92
2024/01/09 00:40:39;;;;;;;1.30;1.30;;;;;;;-7.38;74.79;99481.66;4935839;29;20046;-92
2024/01/09 00:43:05;;;;;;;1.38;1.38;;;;;;;-7.16;74.12;99483.25;4923927;29;20031;-92
2024/01/09 00:45:30;;;;;;;1.35;1.35;;;;;;;-7.15;74.12;99479.00;4941340;29;20043;-92
2024/01/09 00:47:56;;;;;;;1.20;1.20;;;;;;;-7.05;73.57;99482.75;4925295;29;20168;-91
2024/01/09 00:50:21;;;;;;;1.30;1.30;;;;;;;-7.12;73.69;99479.34;4930358;29;20035;-92
2024/01/09 00:52:47;;;;;;;1.30;1.30;;;;;;;-6.66;70.39;99480.00;4963002;29;20035;-91
2024/01/09 00:55:15;;;;;;;1.20;1.20;;;;;;;-6.87;71.53;99473.44;4957178;29;20032;-91
2024/01/09 00:57:40;;;;;;;1.30;1.30;;;;;;;-7.03;72.35;99486.44;4924367;29;20035;-92
2024/01/09 01:00:06;;;;;;;1.20;1.20;;;;;;;-6.76;71.83;99479.78;4925183;29;20031;-90
2024/01/09 01:02:32;;;;;;;1.30;1.30;;;;;;;-7.12;72.43;99482.84;4924575;29;20028;-92
2024/01/09 01:04:57;;;;;;;1.23;1.23;;;;;;;-6.81;71.97;99473.19;4928462;29;20083;-91
2024/01/09 01:07:23;;;;;;;1.30;1.30;;;;;;;-7.18;72.94;99483.88;4926927;29;20048;-92
2024/01/09 01:09:48;;;;;;;1.40;1.40;;;;;;;-7.60;74.45;99487.06;4940277;29;20023;-91
2024/01/09 01:12:14;;;;;;;1.30;1.30;;;;;;;-7.44;75.10;99478.41;4936682;29;20044;-92
2024/01/09 01:14:39;;;;;;;1.30;1.30;;;;;;;-7.13;72.99;99488.78;4938441;29;20031;-90
2024/01/09 01:17:05;;;;;;;1.30;1.30;;;;;;;-7.21;72.06;99476.66;4924111;29;20701;-91
2024/01/09 01:19:30;;;;;;;1.30;1.30;;;;;;;-7.02;71.47;99485.69;4944332;29;20039;-92
2024/01/09 01:21:56;;;;;;;1.38;1.38;;;;;;;-6.86;71.21;99495.13;4929563;29;20036;-91
2024/01/09 01:24:21;;;;;;;1.40;1.40;;;;;;;-7.01;72.34;99484.91;4977976;28;20039;-92
2024/01/09 01:26:47;;;;;;;1.30;1.30;;;;;;;-7.16;72.25;99491.03;4943656;29;20035;-91
2024/01/09 01:29:13;;;;;;;1.40;1.40;;;;;;;-7.12;72.86;99495.81;4966336;28;20031;-91
2024/01/09 01:31:38;;;;;;;1.30;1.30;;;;;;;-6.92;72.11;99500.56;4951680;29;20015;-91
2024/01/09 01:34:05;;;;;;;1.20;1.20;;;;;;;-7.18;72.38;99502.94;4953101;29;20050;-92
2024/01/09 01:36:31;;;;;;;1.30;1.30;;;;;;;-7.38;72.89;99504.97;4953109;29;20084;-91
2024/01/09 01:38:56;;;;;;;1.30;1.30;;;;;;;-7.53;73.65;99504.22;4935286;29;20048;-91
2024/01/09 01:41:22;;;;;;;1.33;1.33;;;;;;;-7.13;72.91;99506.94;4950117;29;20059;-89
2024/01/09 01:43:47;;;;;;;1.30;1.30;;;;;;;-7.38;73.17;99504.97;4939018;29;20035;-90
2024/01/09 01:46:13;;;;;;;1.25;1.25;;;;;;;-7.35;73.17;99502.72;4921890;29;20051;-90
2024/01/09 01:48:39;;;;;;;1.30;1.30;;;;;;;-7.24;72.61;99507.41;4936867;29;20489;-89
2024/01/09 01:51:06;;;;;;;1.30;1.30;;;;;;;-7.17;73.04;99502.16;4933468;29;20067;-90
2024/01/09 01:53:33;;;;;;;1.33;1.33;;;;;;;-7.17;73.38;99507.34;4934181;29;20036;-92
2024/01/09 01:56:00;;;;;;;1.20;1.20;;;;;;;-7.36;73.38;99498.31;4909344;29;20048;-89
2024/01/09 01:58:27;;;;;;;1.30;1.30;;;;;;;-7.55;73.79;99501.47;4930250;29;20084;-89
2024/01/09 02:00:53;;;;;;;1.20;1.20;;;;;;;-7.03;71.66;99504.59;4938780;29;20517;-90
2024/01/09 02:03:19;;;;;;;1.27;1.27;;;;;;;-7.13;71.37;99504.34;4935342;29;20044;-91
2024/01/09 02:05:46;;;;;;;1.20;1.20;;;;;;;-7.18;71.78;99499.41;4938314;29;20466;-91
2024/01/09 02:08:15;;;;;;;1.30;1.30;;;;;;;-7.29;72.06;99506.00;4934931;29;20090;-91
2024/01/09 02:10:40;;;;;;;1.30;1.30;;;;;;;-7.55;73.21;99501.47;4939605;29;20066;-92
2024/01/09 02:13:07;;;;;;;1.30;1.30;;;;;;;-8.11;74.39;99506.38;4923882;29;20040;-92
2024/01/09 02:15:33;;;;;;;1.40;1.40;;;;;;;-7.87;74.27;99504.72;4941672;29;20074;-91
2024/01/09 02:17:58;;;;;;;1.30;1.30;;;;;;;-7.91;75.04;99506.03;4952684;29;20036;-91
2024/01/09 02:20:24;;;;;;;1.30;1.30;;;;;;;-7.89;74.98;99498.47;4968494;29;20130;-91
2024/01/09 02:22:50;;;;;;;1.40;1.40;;;;;;;-7.79;74.62;99503.91;4950744;29;20043;-92
2024/01/09 02:25:16;;;;;;;1.40;1.40;;;;;;;-7.37;72.43;99502.56;4944989;29;20856;-90
2024/01/09 02:27:49;;;;;;;;;;;;;;;-7.72;72.95;99506.41;4938593;29;20020;-92
2024/01/09 02:30:19;;;;;;;1.13;1.13;;;;;;;-7.44;72.64;99496.53;4937628;29;19925;-89
2024/01/09 02:32:46;;;;;;;1.27;1.27;;;;;;;-7.58;73.21;99498.50;4934713;29;20036;-91
2024/01/09 02:35:12;;;;;;;1.27;1.27;;;;;;;-7.75;74.43;99496.66;4935602;29;20513;-90
2024/01/09 02:37:37;;;;;;;1.25;1.25;;;;;;;-7.61;73.22;99502.47;4934693;29;20035;-90
2024/01/09 02:40:06;;;;;;;1.30;1.30;;;;;;;-7.62;73.03;99500.59;4935989;29;20106;-91
2024/01/09 02:42:31;;;;;;;1.30;1.30;;;;;;;-7.54;71.88;99495.50;4952363;29;20047;-91
2024/01/09 02:44:58;;;;;;;1.30;1.30;;;;;;;-7.61;72.55;99493.00;4937824;29;20028;-92
2024/01/09 02:47:25;;;;;;;1.33;1.33;;;;;;;-7.94;73.59;99492.75;4951286;29;20090;-93
2024/01/09 02:49:50;;;;;;;1.40;1.40;;;;;;;-7.70;73.72;99489.41;4937640;29;20050;-91
2024/01/09 02:52:16;;;;;;;1.40;1.40;;;;;;;-7.17;71.63;99490.88;4923442;29;20051;-92
2024/01/09 02:54:42;;;;;;;1.30;1.30;;;;;;;-7.26;71.02;99485.59;4919358;29;20032;-93
2024/01/09 02:57:09;;;;;;;1.20;1.20;;;;;;;-7.58;71.68;99490.75;4934480;29;20091;-91
2024/01/09 02:59:35;;;;;;;1.30;1.30;;;;;;;-7.73;72.34;99482.94;4934569;29;20046;-92
2024/01/09 03:02:01;;;;;;;1.30;1.30;;;;;;;-7.70;72.99;99489.41;4936626;29;20058;-92
2024/01/09 03:04:27;;;;;;;1.40;1.40;;;;;;;-7.79;73.33;99483.19;4936767;29;20090;-92
2024/01/09 03:06:53;;;;;;;1.30;1.30;;;;;;;-7.56;73.77;99486.66;4938109;29;20043;-91
2024/01/09 03:09:18;;;;;;;1.30;1.30;;;;;;;-7.62;73.13;99485.03;4953436;28;20071;-92
2024/01/09 03:11:44;;;;;;;1.20;1.20;;;;;;;-7.84;72.89;99489.53;4936766;29;20090;-92
2024/01/09 03:14:11;;;;;;;1.30;1.30;;;;;;;-7.91;73.89;99487.91;4952940;29;20430;-90
2024/01/09 03:16:37;;;;;;;1.40;1.40;;;;;;;-8.20;74.93;99491.47;4936177;29;20074;-91
2024/01/09 03:19:02;;;;;;;1.20;1.20;;;;;;;-8.07;74.33;99493.03;4920790;29;20047;-92
2024/01/09 03:21:28;;;;;;;1.30;1.30;;;;;;;-8.22;75.60;99490.41;4936257;29;20517;-92
2024/01/09 03:23:53;;;;;;;1.20;1.20;;;;;;;-8.17;74.51;99490.16;4936858;29;20103;-91
2024/01/09 03:26:21;;;;;;;1.23;1.23;;;;;;;-7.44;72.11;99481.00;4936154;29;20031;-92
2024/01/09 03:28:48;;;;;;;1.20;1.20;;;;;;;-7.42;71.83;99477.81;4935490;29;20065;-89
2024/01/09 03:31:24;;;;;;;1.30;1.30;;;;;;;-7.52;71.29;99470.72;4933517;29;20088;-93
2024/01/09 03:33:51;;;;;;;1.20;1.20;;;;;;;-7.62;71.99;99473.00;4934451;29;20035;-91
2024/01/09 03:36:17;;;;;;;1.30;1.30;;;;;;;-7.31;69.64;99466.94;4925387;29;20044;-92
2024/01/09 03:38:46;;;;;;;1.30;1.30;;;;;;;-7.84;71.65;99474.91;4953369;28;20035;-91
2024/01/09 03:41:11;;;;;;;1.30;1.30;;;;;;;-7.79;72.42;99478.94;4934260;29;20046;-91
2024/01/09 03:43:37;;;;;;;1.23;1.23;;;;;;;-7.22;69.62;99480.00;4937229;29;20028;-92
2024/01/09 03:46:04;;;;;;;1.20;1.20;;;;;;;-7.73;70.70;99481.28;4922553;29;20093;-91
2024/01/09 03:48:30;;;;;;;1.30;1.30;;;;;;;-8.06;72.46;99484.53;4948328;28;20040;-90
2024/01/09 03:50:55;;;;;;;1.20;1.20;;;;;;;-8.09;72.57;99485.88;4948948;28;20046;-90
2024/01/09 03:53:22;;;;;;;1.30;1.30;;;;;;;-7.72;72.55;99479.59;4935129;29;20027;-91
2024/01/09 03:55:49;;;;;;;1.20;1.20;;;;;;;-7.81;72.47;99480.44;4918948;29;20055;-90
2024/01/09 03:58:14;;;;;;;1.30;1.30;;;;;;;-8.03;73.58;99486.53;4932000;29;20039;-92
2024/01/09 04:00:40;;;;;;;1.30;1.30;;;;;;;-8.39;74.55;99480.75;4934413;29;20031;-91
2024/01/09 04:03:05;;;;;;;1.30;1.30;;;;;;;-7.93;73.61;99473.88;4934370;29;20425;-91
2024/01/09 04:05:31;;;;;;;1.30;1.30;;;;;;;-7.45;70.29;99481.75;4938601;29;20046;-91
2024/01/09 04:07:57;;;;;;;1.30;1.30;;;;;;;-7.42;71.55;99471.72;4951467;29;20042;-91
2024/01/09 04:10:24;;;;;;;1.40;1.40;;;;;;;-7.62;71.49;99479.88;4939874;29;20438;-90
2024/01/09 04:12:51;;;;;;;1.38;1.38;;;;;;;-7.61;71.57;99472.28;4941985;29;20040;-91
2024/01/09 04:15:17;;;;;;;1.27;1.27;;;;;;;-7.75;72.36;99481.13;4955637;28;20039;-91
2024/01/09 04:17:44;;;;;;;1.38;1.38;;;;;;;-7.79;73.76;99478.94;4936723;29;20028;-91
2024/01/09 04:20:12;;;;;;;1.27;1.27;;;;;;;-7.79;72.14;99473.75;4918880;29;20094;-92
2024/01/09 04:22:38;;;;;;;1.30;1.30;;;;;;;-7.57;71.91;99473.53;4927966;29;20098;-90
2024/01/09 04:25:05;;;;;;;1.38;1.38;;;;;;;-7.27;69.78;99474.31;4935183;29;20039;-90
2024/01/09 04:27:31;;;;;;;1.38;1.38;;;;;;;-7.37;69.83;99480.94;4929780;29;20529;-92
2024/01/09 04:29:58;;;;;;;1.30;1.30;;;;;;;-7.53;71.18;99480.88;4931980;29;20048;-91
2024/01/09 04:32:23;;;;;;;1.30;1.30;;;;;;;-7.63;70.40;99485.81;4938331;29;20217;-91
2024/01/09 04:34:50;;;;;;;1.20;1.20;;;;;;;-7.34;69.39;99491.59;4932554;29;20633;-91
2024/01/09 04:37:16;;;;;;;1.30;1.30;;;;;;;-7.65;70.61;99487.31;4918042;29;20056;-91
2024/01/09 04:39:41;;;;;;;1.30;1.30;;;;;;;-7.85;71.80;99487.69;4933667;29;20371;-91
2024/01/09 04:42:07;;;;;;;1.40;1.40;;;;;;;-7.54;71.35;99486.81;4933561;29;20035;-92
2024/01/09 04:44:32;;;;;;;1.20;1.20;;;;;;;-7.40;70.13;99488.34;4935214;29;20027;-91
2024/01/09 04:46:58;;;;;;;1.30;1.30;;;;;;;-7.47;69.72;99483.22;4936214;29;20039;-91
2024/01/09 04:49:24;;;;;;;1.30;1.30;;;;;;;-7.46;69.95;99485.09;4919309;29;20036;-91
2024/01/09 04:51:50;;;;;;;1.30;1.30;;;;;;;-7.85;70.60;99488.63;4933333;29;20040;-92
2024/01/09 04:54:16;;;;;;;1.30;1.30;;;;;;;-7.96;72.02;99486.47;4933928;29;20039;-91
2024/01/09 04:56:43;;;;;;;1.23;1.23;;;;;;;-8.44;72.95;99495.75;4917819;29;20039;-91
2024/01/09 04:59:10;;;;;;;1.30;1.30;;;;;;;-8.44;72.96;99500.91;4935323;29;20134;-91
2024/01/09 05:01:37;;;;;;;1.25;1.25;;;;;;;-8.67;74.81;99493.13;4918695;29;20039;-91
2024/01/09 05:04:03;;;;;;;1.35;1.35;;;;;;;-8.57;75.03;99497.69;4918718;29;20071;-92
2024/01/09 05:06:28;;;;;;;1.20;1.20;;;;;;;-8.07;74.12;99498.22;4925217;29;20058;-92
2024/01/09 05:08:55;;;;;;;1.25;1.25;;;;;;;-7.86;71.82;99491.94;4945258;29;20055;-91
2024/01/09 05:11:21;;;;;;;1.20;1.20;;;;;;;-7.96;72.07;99490.72;4952595;29;20032;-92
2024/01/09 05:13:48;;;;;;;1.20;1.20;;;;;;;-8.05;72.73;99488.03;4939900;29;20043;-93
2024/01/09 05:16:14;;;;;;;1.40;1.40;;;;;;;-7.98;72.57;99490.56;4937456;29;20036;-90
2024/01/09 05:18:41;;;;;;;1.30;1.30;;;;;;;-7.74;71.39;99482.03;4935193;29;20042;-92
2024/01/09 05:21:08;;;;;;;1.40;1.40;;;;;;;-7.92;71.41;99479.97;4937295;29;20039;-93
2024/01/09 05:23:34;;;;;;;1.30;1.30;;;;;;;-7.93;72.38;99491.09;4935221;29;20032;-92
2024/01/09 05:25:59;;;;;;;1.30;1.30;;;;;;;-7.90;72.96;99484.59;4937471;29;20047;-92
2024/01/09 05:28:26;;;;;;;1.30;1.30;;;;;;;-7.92;72.39;99488.66;4922069;29;20635;-92
2024/01/09 05:30:51;;;;;;;1.30;1.30;;;;;;;-8.11;72.59;99489.94;4939164;29;20061;-93
2024/01/09 05:33:18;;;;;;;1.20;1.20;;;;;;;-7.97;71.36;99484.63;4921674;29;20070;-92
2024/01/09 05:35:43;;;;;;;1.30;1.30;;;;;;;-8.15;71.53;99491.25;4951972;29;20042;-91
2024/01/09 05:38:09;;;;;;;1.30;1.30;;;;;;;-8.26;72.29;99487.44;4939877;29;20039;-92
2024/01/09 05:40:36;;;;;;;1.30;1.30;;;;;;;-8.46;73.20;99494.66;4924667;29;20059;-91
2024/01/09 05:43:01;;;;;;;1.30;1.30;;;;;;;-8.43;74.15;99489.84;4974352;28;20059;-91
2024/01/09 05:45:27;;;;;;;1.30;1.30;;;;;;;-8.51;74.34;99500.06;4927048;29;20062;-91
2024/01/09 05:47:52;;;;;;;1.30;1.30;;;;;;;-7.99;72.56;99490.41;4928724;29;20058;-91
2024/01/09 05:50:18;;;;;;;1.33;1.33;;;;;;;-7.88;70.93;99482.16;4949126;29;20039;-91
2024/01/09 05:52:44;;;;;;;1.20;1.20;;;;;;;-7.71;70.15;99486.63;4936690;29;20049;-91
2024/01/09 05:55:10;;;;;;;1.30;1.30;;;;;;;-8.01;70.95;99485.03;4955607;29;20023;-90
2024/01/09 05:57:36;;;;;;;1.30;1.30;;;;;;;-8.35;73.03;99488.06;4954117;29;20054;-90
2024/01/09 06:00:02;;;;;;;1.40;1.40;;;;;;;-8.38;73.66;99491.28;4954429;29;20072;-90
2024/01/09 06:02:30;;;;;;;1.30;1.30;;;;;;;-8.33;73.03;99491.78;4954657;28;20055;-90
2024/01/09 06:04:55;;;;;;;1.40;1.40;;;;;;;-8.29;72.50;99492.31;4943365;29;20047;-91
2024/01/09 06:07:21;;;;;;;1.27;1.27;;;;;;;-8.03;72.30;99495.22;4956887;29;20039;-92
2024/01/09 06:09:47;;;;;;;1.38;1.38;;;;;;;-8.10;71.60;99490.09;4950575;29;20039;-91
2024/01/09 06:12:15;;;;;;;1.30;1.30;;;;;;;-7.83;70.31;99483.59;4951962;29;20035;-91
2024/01/09 06:14:41;;;;;;;1.35;1.35;;;;;;;-7.41;68.96;99489.13;4952148;29;20027;-90
2024/01/09 06:17:08;;;;;;;1.30;1.30;;;;;;;-7.88;72.05;99498.63;4958359;29;20044;-90
2024/01/09 06:19:34;;;;;;;1.30;1.30;;;;;;;-8.10;72.84;99495.28;4940724;29;20024;-92
2024/01/09 06:35:33;;;;;;;1.35;1.35;;;;;;;-7.66;69.63;99490.66;5560708;23;20044;-94
2024/01/09 06:38:01;;;;;;;1.25;1.25;;;;;;;-7.70;69.50;99494.56;4931292;29;20107;-88
2024/01/09 06:40:26;;;;;;;1.40;1.40;;;;;;;-8.04;70.98;99501.16;4958185;28;20047;-91
2024/01/09 06:42:52;;;;;;;1.40;1.40;;;;;;;-8.21;71.85;99500.00;4957467;28;20040;-91
2024/01/09 06:45:18;;;;;;;1.30;1.30;;;;;;;-7.50;69.36;99502.88;4957355;29;20040;-93
2024/01/09 06:47:44;;;;;;;1.30;1.30;;;;;;;-7.74;69.71;99500.16;4927105;29;20044;-92
2024/01/09 06:50:10;;;;;;;1.30;1.30;;;;;;;-8.14;71.36;99508.66;4936530;29;20558;-95
2024/01/09 06:58:03;;;;;;;1.30;1.30;;;;;;;-8.67;74.04;99519.00;5580901;23;20048;-91
2024/01/09 07:00:29;;;;;;;1.27;1.27;;;;;;;-8.52;73.59;99514.66;4930811;29;20062;-90
2024/01/09 07:02:57;;;;;;;1.20;1.20;;;;;;;-8.17;72.29;99518.63;4932092;29;20012;-90
2024/01/09 07:05:26;;;;;;;1.20;1.20;;;;;;;-8.14;71.29;99523.25;4927652;29;20052;-91
2024/01/09 07:07:52;;;;;;;1.27;1.27;;;;;;;-7.88;70.50;99518.41;4895415;29;20056;-92
2024/01/09 07:10:18;;;;;;;1.30;1.30;;;;;;;-7.43;68.94;99519.09;4917576;29;20063;-91
2024/01/09 07:12:44;;;;;;;1.30;1.30;;;;;;;-7.57;68.52;99518.53;4934920;29;20451;-93
2024/01/09 07:15:13;;;;;;;1.33;1.33;;;;;;;-7.58;68.57;99516.66;4918884;29;20109;-92
2024/01/09 07:17:41;;;;;;;1.30;1.30;;;;;;;-7.62;69.86;99518.72;4923949;29;20036;-94
2024/01/09 07:20:07;;;;;;;1.30;1.30;;;;;;;-7.89;69.20;99532.13;4908072;29;20035;-95
2024/01/09 07:22:34;;;;;;;1.20;1.20;;;;;;;-7.61;68.84;99528.38;4913610;29;20533;-96
2024/01/09 07:25:00;;;;;;;1.30;1.30;;;;;;;-7.48;68.65;99528.97;4933564;29;20119;-93
2024/01/09 07:27:26;;;;;;;1.30;1.30;;;;;;;-7.51;68.96;99528.63;4914297;29;20052;-92
2024/01/09 07:29:51;;;;;;;1.35;1.35;;;;;;;-7.61;68.97;99531.88;4902119;29;20372;-93
2024/01/09 07:32:17;;;;;;;1.30;1.30;;;;;;;-7.54;68.90;99536.97;4898628;29;20048;-93
2024/01/09 07:34:44;;;;;;;1.30;1.30;;;;;;;-7.77;70.95;99541.25;4897763;29;20036;-92
2024/01/09 07:37:11;;;;;;;1.20;1.20;;;;;;;-7.52;69.82;99532.91;4915540;29;20055;-93
2024/01/09 07:39:38;;;;;;;1.30;1.30;;;;;;;-8.01;70.76;99534.22;4898098;29;20071;-94
2024/01/09 07:42:06;;;;;;;1.30;1.30;;;;;;;-8.15;71.34;99537.84;4906403;29;20083;-95
2024/01/09 07:44:31;;;;;;;1.30;1.30;;;;;;;-8.05;72.12;99530.41;4908522;29;20063;-95
2024/01/09 07:46:59;;;;;;;1.30;1.30;;;;;;;-7.85;69.80;99535.22;4892693;29;20052;-92
2024/01/09 07:49:25;;;;;;;1.30;1.30;;;;;;;-7.88;70.76;99539.13;4921600;29;20067;-95
2024/01/09 07:51:51;;;;;;;1.30;1.30;;;;;;;-7.98;71.12;99550.13;4903070;29;20036;-96
2024/01/09 07:54:17;;;;;;;1.30;1.30;;;;;;;-7.58;69.96;99534.78;4892264;29;20033;-93
2024/01/09 07:56:42;;;;;;;1.35;1.35;;;;;;;-7.43;69.13;99543.34;4890909;29;20126;-92
2024/01/09 07:59:11;;;;;;;1.30;1.30;;;;;;;-7.22;67.99;99543.91;4901883;29;20048;-93
2024/01/09 08:01:37;;;;;;;1.20;1.20;;;;;;;-7.31;68.45;99552.50;4904458;29;20044;-92
2024/01/09 08:04:06;;;;;;;1.40;1.40;;;;;;;-6.97;66.67;99543.22;4908736;29;20104;-93
2024/01/09 08:06:33;;;;;;;1.30;1.30;;;;;;;-6.99;66.76;99548.25;4901037;29;20111;-93
2024/01/09 08:08:58;;;;;;;1.20;1.20;;;;;;;-6.99;66.72;99556.03;4901520;29;20040;-93
2024/01/09 08:11:26;;;;;;;1.30;1.30;;;;;;;-6.73;66.03;99555.38;4884023;29;20047;-94
2024/01/09 08:13:52;;;;;;;1.33;1.33;;;;;;;-6.55;64.37;99548.66;4902751;29;20028;-93
2024/01/09 08:16:19;;;;;;;1.30;1.30;;;;;;;-6.59;65.08;99550.00;4902750;29;20045;-94
2024/01/09 08:18:45;;;;;;;1.25;1.25;;;;;;;-6.57;64.94;99544.97;4904208;29;20047;-94
2024/01/09 08:21:12;;;;;;;1.40;1.40;;;;;;;-6.49;64.95;99542.44;4899975;29;20048;-91
2024/01/09 08:23:37;;;;;;;1.40;1.40;;;;;;;-5.82;63.46;99538.25;4895301;29;20586;-91
2024/01/09 08:26:03;;;;;;;1.40;1.40;;;;;;;-5.56;60.99;99543.56;4906228;29;20029;-90
2024/01/09 08:28:30;;;;;;;1.40;1.40;;;;;;;-5.16;60.83;99534.72;4916099;29;20131;-91
2024/01/09 08:30:56;;;;;;;1.40;1.40;;;;;;;-5.23;60.19;99540.03;4904508;29;20048;-91
2024/01/09 08:33:21;;;;;;;1.30;1.30;;;;;;;-5.18;59.87;99539.72;4908589;29;20049;-91
2024/01/09 08:35:50;;;;;;;1.30;1.30;;;;;;;-5.33;60.76;99534.66;4892024;29;20036;-92
2024/01/09 08:38:17;;;;;;;1.20;1.20;;;;;;;-5.27;60.72;99541.41;4890950;29;20051;-93
2024/01/09 08:40:42;;;;;;;;;;;;;;;-4.92;59.71;99544.09;4897467;29;20041;-92
2024/01/09 08:43:08;;;;;;;1.30;1.30;;;;;;;-4.68;58.35;99541.38;4905602;29;19918;-90
2024/01/09 08:45:33;;;;;;;1.40;1.40;;;;;;;-4.47;58.29;99545.19;4890142;29;20033;-90
2024/01/09 08:47:59;;;;;;;1.30;1.30;;;;;;;-4.68;57.14;99546.56;4902160;29;20476;-92
2024/01/09 08:50:25;;;;;;;1.30;1.30;;;;;;;-4.94;57.95;99550.81;4904554;29;20037;-93
2024/01/09 08:52:52;;;;;;;1.30;1.30;;;;;;;-4.47;58.85;99546.88;4909014;29;20052;-90
2024/01/09 08:55:17;;;;;;;1.40;1.40;;;;;;;-4.38;57.15;99543.50;4881745;29;20044;-92
2024/01/09 08:57:45;;;;;;;1.40;1.40;;;;;;;-4.01;57.07;99541.94;4912317;29;20051;-93
2024/01/09 09:00:11;;;;;;;1.30;1.30;;;;;;;-3.82;55.79;99543.75;4901796;29;20032;-91
2024/01/09 09:02:37;;;;;;;1.30;1.30;;;;;;;-3.76;55.10;99544.34;4914569;29;20063;-92
2024/01/09 09:05:02;;;;;;;1.30;1.30;;;;;;;-3.27;53.56;99534.34;4901092;29;20052;-90
2024/01/09 09:07:28;;;;;;;1.30;1.30;;;;;;;-3.42;54.32;99533.78;4907276;29;20108;-89
2024/01/09 09:09:55;;;;;;;1.30;1.30;;;;;;;-3.25;53.74;99526.69;4913712;29;20040;-93
2024/01/09 09:12:20;;;;;;;1.27;1.27;;;;;;;-3.12;52.49;99533.16;4915227;29;20075;-90
2024/01/09 09:14:46;;;;;;;1.30;1.30;;;;;;;-3.32;53.44;99537.28;4901989;29;20032;-93
2024/01/09 09:17:14;;;;;;;1.20;1.20;;;;;;;-3.36;53.66;99538.66;4896498;29;20099;-91
2024/01/09 09:19:39;;;;;;;1.30;1.30;;;;;;;-2.63;52.09;99536.88;4906848;29;20475;-91
2024/01/09 09:22:04;;;;;;;1.30;1.30;;;;;;;-2.19;50.95;99527.00;4907561;29;20041;-89
2024/01/09 09:24:30;;;;;;;1.20;1.20;;;;;;;-2.88;51.15;99523.22;4909189;29;20036;-91
2024/01/09 09:26:55;;;;;;;1.30;1.30;;;;;;;-3.37;52.52;99527.31;4903608;29;20071;-91
2024/01/09 09:29:24;;;;;;;1.30;1.30;;;;;;;-3.36;52.39;99529.16;4900226;29;20037;-92
2024/01/09 09:31:52;;;;;;;1.30;1.30;;;;;;;-2.09;50.34;99521.81;4925037;29;20039;-93
2024/01/09 09:34:20;;;;;;;1.30;1.30;;;;;;;-2.06;50.12;99529.91;4889116;29;20571;-91
2024/01/09 09:36:47;;;;;;;1.20;1.20;;;;;;;-2.09;49.46;99522.72;4904891;29;20044;-92
2024/01/09 09:39:13;;;;;;;1.20;1.20;;;;;;;-2.22;49.12;99525.00;4930075;29;20049;-89
2024/01/09 09:41:43;;;;;;;1.30;1.30;;;;;;;-1.13;47.86;99512.06;4924471;29;20043;-88
2024/01/09 09:44:13;;;;;;;1.20;1.20;;;;;;;-1.43;47.52;99517.25;4919078;29;20021;-89
2024/01/09 09:46:41;;;;;;;1.20;1.20;;;;;;;-1.66;47.01;99515.22;4935433;29;20048;-88
2024/01/09 09:49:08;;;;;;;1.30;1.30;;;;;;;-1.40;46.14;99515.78;4919068;29;20578;-92
2024/01/09 09:51:35;;;;;;;1.30;1.30;;;;;;;-1.25;46.75;99520.53;4921030;29;20032;-88
2024/01/09 09:54:03;;;;;;;1.20;1.20;;;;;;;0.08;44.73;99503.03;4904189;29;20304;-88
2024/01/09 09:56:30;;;;;;;1.20;1.20;;;;;;;-1.19;45.92;99510.63;4921431;29;20040;-89
2024/01/09 09:58:55;;;;;;;1.30;1.30;;;;;;;-0.34;44.99;99499.59;4908469;29;20048;-90
2024/01/09 10:01:22;;;;;;;1.10;1.10;;;;;;;-0.62;45.46;99504.25;4926959;29;20044;-91
2024/01/09 10:03:56;;;;;;;1.23;1.23;;;;;;;-1.69;46.61;99504.47;4915513;29;20043;-89
2024/01/09 10:06:22;;;;;;;1.20;1.20;;;;;;;-1.45;46.58;99509.25;4920324;29;20092;-90
2024/01/09 10:08:50;;;;;;;1.20;1.20;;;;;;;-1.40;46.91;99500.09;4919216;29;20047;-89
2024/01/09 10:11:18;;;;;;;1.20;1.20;;;;;;;-0.79;45.52;99496.63;4917902;29;20074;-88
2024/01/09 10:13:44;;;;;;;1.20;1.20;;;;;;;-0.64;46.23;99494.41;4922078;29;20209;-88
2024/01/09 10:16:10;;;;;;;1.23;1.23;;;;;;;-0.14;43.71;99484.63;4915703;29;20036;-90
2024/01/09 10:18:37;;;;;;;1.20;1.20;;;;;;;-0.88;45.32;99493.22;4933389;29;20096;-88
2024/01/09 10:21:05;;;;;;;1.10;1.10;;;;;;;-0.07;43.09;99482.63;4919056;29;20051;-90
2024/01/09 10:23:30;;;;;;;;;;;;;;;-0.43;45.07;99476.94;4920149;29;20063;-89
2024/01/09 10:25:57;;;;;;;1.20;1.20;;;;;;;-0.44;44.49;99483.88;4897965;29;19924;-89
2024/01/09 10:28:23;;;;;;;1.20;1.20;;;;;;;0.87;41.18;99471.78;4898520;29;20032;-91
2024/01/09 10:30:53;;;;;;;1.10;1.10;;;;;;;-0.24;42.97;99476.75;4893971;29;20731;-90
2024/01/09 10:33:19;;;;;;;1.20;1.20;;;;;;;0.94;42.22;99468.84;4905904;29;20042;-89
2024/01/09 10:35:44;;;;;;;1.20;1.20;;;;;;;0.89;41.85;99464.94;4923228;29;20037;-90
2024/01/09 10:38:10;;;;;;;1.20;1.20;;;;;;;0.12;41.71;99476.25;4900779;29;20089;-90
2024/01/09 10:40:36;;;;;;;1.20;1.20;;;;;;;1.45;40.91;99466.69;4906826;29;20029;-89
2024/01/09 10:43:02;;;;;;;1.20;1.20;;;;;;;1.69;39.96;99459.75;4903162;29;20071;-89
2024/01/09 10:45:28;;;;;;;1.10;1.10;;;;;;;0.47;41.18;99461.63;4905198;29;20037;-89
2024/01/09 10:47:54;;;;;;;1.20;1.20;;;;;;;0.01;41.69;99470.16;4905248;29;20093;-88
2024/01/09 10:50:21;;;;;;;1.20;1.20;;;;;;;-0.25;42.22;99465.38;4908720;29;20036;-90
2024/01/09 10:52:51;;;;;;;1.20;1.20;;;;;;;0.22;41.90;99471.88;4895868;29;20187;-88
2024/01/09 10:55:20;;;;;;;1.20;1.20;;;;;;;0.01;42.47;99464.91;4925432;29;20397;-89
2024/01/09 10:57:47;;;;;;;1.20;1.20;;;;;;;0.04;41.50;99461.59;4899428;29;20028;-87
2024/01/09 11:00:13;;;;;;;1.20;1.20;;;;;;;0.22;42.08;99455.22;4919082;29;20045;-88
2024/01/09 11:02:39;;;;;;;1.20;1.20;;;;;;;0.35;42.05;99463.31;4920543;29;20047;-89
2024/01/09 11:05:07;;;;;;;1.20;1.20;;;;;;;2.18;39.05;99458.13;4916533;29;20059;-87
2024/01/09 11:07:33;;;;;;;;;;;;;;;0.18;41.19;99463.63;4906030;29;20108;-90
2024/01/09 11:10:03;;;;;;;1.08;1.08;;;;;;;1.25;39.91;99449.41;4904293;29;19961;-87
2024/01/09 11:12:43;;;;;;;1.20;1.20;;;;;;;0.68;39.94;99448.41;4906244;29;20096;-92
2024/01/09 11:15:15;;;;;;;1.17;1.17;;;;;;;1.64;40.05;99452.31;4918177;29;20032;-93
2024/01/09 11:17:44;;;;;;;1.20;1.20;;;;;;;1.17;39.79;99447.88;4900979;29;20040;-90
2024/01/09 11:20:14;;;;;;;1.10;1.10;;;;;;;2.04;38.16;99438.69;4903497;29;20055;-91
2024/01/09 11:22:39;;;;;;;1.20;1.20;;;;;;;2.22;38.15;99436.50;4898726;29;20032;-89
2024/01/09 11:25:15;;;;;;;1.20;1.20;;;;;;;2.25;36.72;99435.78;4901037;29;20035;-93
2024/01/09 11:27:49;;;;;;;1.20;1.20;;;;;;;0.99;37.92;99428.97;4885193;29;20068;-90
2024/01/09 11:30:28;;;;;;;1.20;1.20;;;;;;;2.79;36.10;99423.03;4892112;29;20044;-92
2024/01/09 11:32:58;;;;;;;1.20;1.20;;;;;;;2.45;36.47;99422.34;4900333;29;20097;-89
2024/01/09 11:35:27;;;;;;;1.10;1.10;;;;;;;2.36;36.74;99412.88;4890668;29;20053;-93
2024/01/09 11:37:54;;;;;;;1.20;1.20;;;;;;;2.70;37.51;99417.13;4907929;29;20052;-91
2024/01/09 11:40:21;;;;;;;1.10;1.10;;;;;;;1.77;37.45;99424.41;4885682;29;20063;-92
2024/01/09 11:42:51;;;;;;;1.20;1.20;;;;;;;2.03;37.66;99417.53;4907001;29;20038;-93
2024/01/09 11:45:25;;;;;;;1.20;1.20;;;;;;;2.09;35.19;99422.31;4921082;29;20032;-87
2024/01/09 11:47:53;;;;;;;1.20;1.20;;;;;;;1.55;36.83;99415.72;4916011;29;20044;-89
2024/01/09 11:50:19;;;;;;;1.20;1.20;;;;;;;2.76;35.91;99404.34;4919669;29;20081;-87
2024/01/09 11:52:46;;;;;;;1.20;1.20;;;;;;;2.62;36.83;99396.28;4930994;29;20040;-92